Time;durP1;ratioP1;P1;durP2;ratioP2;P2;SDS_P1;SDS_P2;PMS_P1;PMS_P2;Temp;Humidity;BMP_temperature;BMP_pressure;BME280_temperature;BME280_humidity;BME280_pressure;Samples;Min_cycle;Max_cycle;Signal;HPM_P1;HPM_P2
2023/05/19 00:00:27;;;;;;;6.97;3.67;;;10.30;77.80;;;;;;4992955;28;20891;-70
2023/05/19 00:02:55;;;;;;;7.97;3.30;;;10.20;78.00;;;;;;4993299;28;20450;-69
2023/05/19 00:05:24;;;;;;;5.90;3.33;;;10.20;76.20;;;;;;4993660;28;20453;-70
2023/05/19 00:07:56;;;;;;;7.50;2.83;;;10.20;74.40;;;;;;4993876;28;20446;-70
2023/05/19 00:10:29;;;;;;;6.03;3.00;;;10.30;74.60;;;;;;4994054;28;20487;-70
2023/05/19 00:12:58;;;;;;;4.70;2.50;;;10.30;74.30;;;;;;4993886;28;20835;-70
2023/05/19 00:15:28;;;;;;;4.10;2.77;;;10.30;73.60;;;;;;4993762;28;20457;-70
2023/05/19 00:17:56;;;;;;;5.33;3.30;;;10.40;73.50;;;;;;4993976;28;20680;-70
2023/05/19 00:20:24;;;;;;;5.80;3.10;;;10.50;73.30;;;;;;4993975;28;20462;-70
2023/05/19 00:22:52;;;;;;;4.90;3.00;;;10.50;72.80;;;;;;4993814;28;20445;-70
2023/05/19 00:25:19;;;;;;;7.37;3.73;;;10.60;72.30;;;;;;4993801;28;20449;-71
2023/05/19 00:27:47;;;;;;;4.30;2.60;;;10.60;72.10;;;;;;4993859;28;20520;-70
2023/05/19 00:30:16;;;;;;;6.43;3.00;;;10.60;72.40;;;;;;5006982;28;20460;-71
2023/05/19 00:32:45;;;;;;;8.33;3.70;;;10.70;72.40;;;;;;5013047;28;20535;-70
2023/05/19 00:35:13;;;;;;;4.87;3.03;;;10.60;72.50;;;;;;5013356;28;20459;-71
2023/05/19 00:37:41;;;;;;;7.97;3.27;;;10.60;72.50;;;;;;5012794;28;20527;-71
2023/05/19 00:40:10;;;;;;;7.33;3.17;;;10.70;72.50;;;;;;5013589;28;20450;-71
2023/05/19 00:42:38;;;;;;;5.50;3.63;;;10.70;72.70;;;;;;5012435;28;20479;-70
2023/05/19 00:45:07;;;;;;;8.33;3.57;;;10.70;73.00;;;;;;5013226;28;20498;-70
2023/05/19 00:47:35;;;;;;;6.63;2.90;;;10.60;72.70;;;;;;5012577;28;20475;-70
2023/05/19 00:50:05;;;;;;;6.87;3.37;;;10.60;73.20;;;;;;5012687;28;20868;-70
2023/05/19 00:52:33;;;;;;;9.30;3.47;;;10.60;73.30;;;;;;5012918;28;20802;-70
2023/05/19 00:55:01;;;;;;;8.77;3.23;;;10.60;73.40;;;;;;5012412;28;20475;-71
2023/05/19 00:57:30;;;;;;;6.37;3.00;;;10.50;73.80;;;;;;5012955;28;20460;-70
2023/05/19 00:59:57;;;;;;;8.47;3.20;;;10.50;74.60;;;;;;5012577;28;21025;-70
2023/05/19 01:02:28;;;;;;;5.20;3.83;;;10.40;75.40;;;;;;5012382;28;20462;-70
2023/05/19 01:04:57;;;;;;;4.17;3.40;;;10.40;76.40;;;;;;5012752;28;20499;-71
2023/05/19 01:07:27;;;;;;;5.90;3.20;;;10.30;77.60;;;;;;5012388;28;20469;-71
2023/05/19 01:09:56;;;;;;;7.00;3.23;;;10.20;78.80;;;;;;5012270;28;20858;-70
2023/05/19 01:12:24;;;;;;;6.50;3.70;;;10.20;79.30;;;;;;5012392;28;20458;-70
2023/05/19 01:14:52;;;;;;;4.00;3.13;;;10.10;80.20;;;;;;5012630;28;20503;-70
2023/05/19 01:17:29;;;;;;;9.83;2.97;;;10.10;80.10;;;;;;5011933;28;20552;-70
2023/05/19 01:20:04;;;;;;;6.20;2.77;;;10.20;80.10;;;;;;5012304;28;20483;-71
2023/05/19 01:22:55;;;;;;;6.00;3.20;;;10.20;80.50;;;;;;5012107;28;20460;-70
2023/05/19 01:25:47;;;;;;;6.40;3.83;;;10.20;79.30;;;;;;5012803;28;20441;-71
2023/05/19 01:28:39;;;;;;;7.50;3.73;;;10.30;78.70;;;;;;5012201;28;20812;-70
2023/05/19 01:31:10;;;;;;;5.73;2.90;;;10.30;79.10;;;;;;4990060;28;21065;-71
2023/05/19 01:33:41;;;;;;;7.97;2.93;;;10.30;79.20;;;;;;5012122;28;20499;-71
2023/05/19 01:36:10;;;;;;;5.97;2.87;;;10.30;79.30;;;;;;5011928;28;20490;-71
2023/05/19 01:38:39;;;;;;;7.93;3.63;;;10.40;79.20;;;;;;5011992;28;21099;-70
2023/05/19 01:41:08;;;;;;;6.20;4.00;;;10.40;78.20;;;;;;5011864;28;20539;-70
2023/05/19 01:43:36;;;;;;;5.70;3.57;;;10.40;77.90;;;;;;5011949;28;20546;-70
2023/05/19 01:46:05;;;;;;;3.97;3.17;;;10.50;79.80;;;;;;5011936;28;20468;-70
2023/05/19 01:48:35;;;;;;;7.87;4.00;;;10.40;85.50;;;;;;5011877;28;20477;-70
2023/05/19 01:51:03;;;;;;;6.50;3.80;;;10.40;81.10;;;;;;5011818;28;20541;-71
2023/05/19 01:53:31;;;;;;;4.23;3.50;;;10.40;79.90;;;;;;5011482;28;20450;-70
2023/05/19 01:56:00;;;;;;;5.63;3.57;;;10.50;79.30;;;;;;5012009;28;20471;-70
2023/05/19 01:58:38;;;;;;;5.10;3.30;;;10.50;79.90;;;;;;5011538;28;20450;-70
2023/05/19 02:01:16;;;;;;;11.83;3.30;;;10.50;80.60;;;;;;5011427;28;20443;-70
2023/05/19 02:04:01;;;;;;;5.17;3.43;;;10.50;81.30;;;;;;5010749;28;20456;-70
2023/05/19 02:06:36;;;;;;;6.53;3.30;;;10.50;80.90;;;;;;5011571;28;20453;-69
2023/05/19 02:09:11;;;;;;;7.47;3.50;;;10.50;81.20;;;;;;5011246;28;20451;-70
2023/05/19 02:11:44;;;;;;;6.27;3.73;;;10.50;81.70;;;;;;5011812;28;20540;-70
2023/05/19 02:14:19;;;;;;;4.97;3.10;;;10.40;82.00;;;;;;5010938;28;20451;-70
2023/05/19 02:16:49;;;;;;;8.03;4.03;;;10.40;82.50;;;;;;5011685;28;20550;-70
2023/05/19 02:19:23;;;;;;;6.13;3.13;;;10.40;82.40;;;;;;5011413;28;20485;-70
2023/05/19 02:21:51;;;;;;;7.33;3.30;;;10.40;83.00;;;;;;5010691;28;20478;-70
2023/05/19 02:24:21;;;;;;;4.07;3.20;;;10.40;86.50;;;;;;5010991;28;20503;-70
2023/05/19 02:26:50;;;;;;;7.87;3.57;;;10.30;85.40;;;;;;5010941;28;20468;-70
2023/05/19 02:29:19;;;;;;;6.80;3.30;;;10.30;83.20;;;;;;5011474;28;20480;-71
2023/05/19 02:31:47;;;;;;;5.20;3.50;;;10.30;82.60;;;;;;5011267;28;20468;-70
2023/05/19 02:34:15;;;;;;;5.43;3.87;;;10.30;83.40;;;;;;5010943;28;21125;-70
2023/05/19 02:36:44;;;;;;;7.57;3.77;;;10.30;84.40;;;;;;5011029;28;20540;-71
2023/05/19 02:39:12;;;;;;;5.57;3.43;;;10.30;88.10;;;;;;5010979;28;20998;-71
2023/05/19 02:41:40;;;;;;;7.90;3.30;;;10.30;91.30;;;;;;5011113;28;20491;-71
2023/05/19 02:44:08;;;;;;;9.33;3.40;;;10.20;89.60;;;;;;5010651;28;21025;-70
2023/05/19 02:46:36;;;;;;;11.80;4.17;;;10.20;89.70;;;;;;5010772;28;21016;-71
2023/05/19 02:49:04;;;;;;;5.50;3.57;;;10.20;90.80;;;;;;5010711;28;20445;-70
2023/05/19 02:51:32;;;;;;;7.33;3.63;;;10.20;92.20;;;;;;5010765;28;20442;-71
2023/05/19 02:54:01;;;;;;;6.73;3.50;;;10.30;91.50;;;;;;5010240;28;21034;-70
2023/05/19 02:56:29;;;;;;;7.20;3.20;;;10.30;92.50;;;;;;5010938;28;20493;-70
2023/05/19 02:58:58;;;;;;;5.63;3.17;;;10.30;90.60;;;;;;5010502;28;20445;-70
2023/05/19 03:01:25;;;;;;;4.70;3.07;;;10.30;87.10;;;;;;5010569;28;20937;-70
2023/05/19 03:03:53;;;;;;;5.03;3.37;;;10.40;86.50;;;;;;5010069;28;20444;-71
2023/05/19 03:06:23;;;;;;;3.73;3.27;;;10.30;90.10;;;;;;5010411;28;20488;-71
2023/05/19 03:08:51;;;;;;;5.43;3.40;;;10.30;87.30;;;;;;5010580;28;20449;-71
2023/05/19 03:11:22;;;;;;;6.27;3.50;;;10.20;86.60;;;;;;5010414;28;20544;-71
2023/05/19 03:13:50;;;;;;;4.93;3.30;;;10.20;87.20;;;;;;5010230;28;20813;-71
2023/05/19 03:16:17;;;;;;;6.77;3.20;;;10.20;86.80;;;;;;5010212;28;20501;-71
2023/05/19 03:18:46;;;;;;;4.40;3.40;;;10.10;88.70;;;;;;5010252;28;20449;-71
2023/05/19 03:21:14;;;;;;;5.63;4.20;;;10.00;90.20;;;;;;5010396;28;20497;-71
2023/05/19 03:23:42;;;;;;;7.27;4.07;;;10.00;91.00;;;;;;5010175;28;20448;-71
2023/05/19 03:26:10;;;;;;;5.20;3.87;;;10.00;89.70;;;;;;5010179;28;20508;-71
2023/05/19 03:28:39;;;;;;;6.43;3.83;;;10.00;89.00;;;;;;5010228;28;20524;-71
2023/05/19 03:31:07;;;;;;;5.83;3.60;;;10.00;88.50;;;;;;5010194;28;20869;-70
2023/05/19 03:33:35;;;;;;;8.60;3.80;;;9.90;90.10;;;;;;5009470;28;20452;-71
2023/05/19 03:36:03;;;;;;;9.17;3.83;;;9.90;90.40;;;;;;5009986;28;20567;-71
2023/05/19 03:38:31;;;;;;;3.93;3.53;;;9.80;91.30;;;;;;5010113;28;20491;-71
2023/05/19 03:40:59;;;;;;;5.73;4.10;;;9.80;91.10;;;;;;5010795;28;20487;-71
2023/05/19 03:43:27;;;;;;;5.47;3.63;;;9.70;92.30;;;;;;5009582;28;20445;-71
2023/05/19 03:45:56;;;;;;;4.70;3.30;;;9.60;91.50;;;;;;5009788;28;21182;-71
2023/05/19 03:48:25;;;;;;;8.23;4.00;;;9.60;91.70;;;;;;5009866;28;20456;-71
2023/05/19 03:50:53;;;;;;;5.63;3.77;;;9.60;91.50;;;;;;5009927;28;20447;-70
2023/05/19 03:53:21;;;;;;;5.60;3.47;;;9.60;91.90;;;;;;5009990;28;20459;-70
2023/05/19 03:55:49;;;;;;;6.53;3.40;;;9.60;91.50;;;;;;5010029;28;20888;-70
2023/05/19 03:58:17;;;;;;;6.10;3.70;;;9.50;91.70;;;;;;5011211;28;20459;-71
2023/05/19 04:00:45;;;;;;;5.70;3.50;;;9.50;92.00;;;;;;5015325;28;20511;-71
2023/05/19 04:03:14;;;;;;;7.10;3.60;;;9.50;92.20;;;;;;5016894;28;20479;-71
2023/05/19 04:05:43;;;;;;;7.50;3.80;;;9.50;92.00;;;;;;5014869;28;20454;-70
2023/05/19 04:08:11;;;;;;;5.67;4.37;;;9.50;93.00;;;;;;5014578;28;20443;-71
2023/05/19 04:10:39;;;;;;;9.63;4.30;;;9.50;93.30;;;;;;5011198;28;20458;-71
2023/05/19 04:13:09;;;;;;;6.23;4.20;;;9.40;94.70;;;;;;5010046;28;20452;-71
2023/05/19 04:15:37;;;;;;;6.03;3.90;;;9.50;95.50;;;;;;5010252;28;20502;-69
2023/05/19 04:18:05;;;;;;;9.90;4.10;;;9.40;93.30;;;;;;5010594;28;20440;-71
2023/05/19 04:20:34;;;;;;;7.43;4.67;;;9.40;95.40;;;;;;5010543;28;20483;-70
2023/05/19 04:23:02;;;;;;;5.87;3.70;;;9.40;97.10;;;;;;5009583;28;20448;-70
2023/05/19 04:25:30;;;;;;;6.47;4.50;;;9.40;95.40;;;;;;5009988;28;20457;-70
2023/05/19 04:27:59;;;;;;;8.40;3.70;;;9.50;95.90;;;;;;5010142;28;20448;-70
2023/05/19 04:30:28;;;;;;;7.57;3.77;;;9.50;95.20;;;;;;5010004;28;20490;-70
2023/05/19 04:32:56;;;;;;;6.37;3.77;;;9.50;93.60;;;;;;5009864;28;20444;-70
2023/05/19 04:35:25;;;;;;;5.97;3.87;;;9.50;94.30;;;;;;5010116;28;20444;-69
2023/05/19 04:37:54;;;;;;;5.90;4.27;;;9.60;92.80;;;;;;5009616;28;20816;-70
2023/05/19 04:40:22;;;;;;;5.80;3.73;;;9.60;92.50;;;;;;5009448;28;20522;-72
2023/05/19 04:42:51;;;;;;;7.57;3.77;;;9.70;92.10;;;;;;5009192;28;20972;-70
2023/05/19 04:45:19;;;;;;;7.87;3.63;;;9.70;91.70;;;;;;5012219;28;20542;-69
2023/05/19 04:47:47;;;;;;;6.13;3.67;;;9.80;91.80;;;;;;5013273;28;20650;-70
2023/05/19 04:50:16;;;;;;;4.33;3.70;;;9.90;91.40;;;;;;5012806;28;20524;-70
2023/05/19 04:52:44;;;;;;;8.53;4.27;;;9.90;91.30;;;;;;5012969;28;20445;-71
2023/05/19 04:55:14;;;;;;;3.80;3.50;;;10.00;90.40;;;;;;5013368;28;20443;-70
2023/05/19 04:57:42;;;;;;;8.97;4.37;;;10.00;90.30;;;;;;5012735;28;20467;-70
2023/05/19 05:00:12;;;;;;;6.93;4.80;;;10.10;91.40;;;;;;5012925;28;20476;-70
2023/05/19 05:02:41;;;;;;;5.33;3.97;;;10.00;91.80;;;;;;5012348;28;20952;-71
2023/05/19 05:05:09;;;;;;;3.83;3.27;;;10.00;91.50;;;;;;5012817;28;20988;-70
2023/05/19 05:07:37;;;;;;;5.70;3.50;;;10.00;91.10;;;;;;5012557;28;20562;-70
2023/05/19 05:10:07;;;;;;;5.93;3.87;;;10.00;90.50;;;;;;5012889;28;20490;-71
2023/05/19 05:12:40;;;;;;;5.17;3.57;;;10.10;90.60;;;;;;5012904;28;20986;-71
2023/05/19 05:15:11;;;;;;;6.30;4.00;;;10.10;90.10;;;;;;5013462;28;20447;-72
2023/05/19 05:17:39;;;;;;;5.30;3.53;;;10.20;90.00;;;;;;5012442;28;20608;-72
2023/05/19 05:20:08;;;;;;;3.50;3.20;;;10.30;88.60;;;;;;5012502;28;20862;-71
2023/05/19 05:22:37;;;;;;;5.83;3.90;;;10.30;87.90;;;;;;5012526;28;20791;-72
2023/05/19 05:25:06;;;;;;;5.43;3.67;;;10.40;89.80;;;;;;5012388;28;20530;-71
2023/05/19 05:27:34;;;;;;;7.43;3.90;;;10.50;90.10;;;;;;5012645;28;20453;-72
2023/05/19 05:30:04;;;;;;;3.90;3.40;;;10.60;90.20;;;;;;5012230;28;20536;-72
2023/05/19 05:32:32;;;;;;;4.23;3.60;;;10.70;86.60;;;;;;5012385;28;20444;-71
2023/05/19 05:35:00;;;;;;;6.97;3.60;;;10.70;84.20;;;;;;5012315;28;20447;-72
2023/05/19 05:37:29;;;;;;;6.37;3.40;;;10.70;85.90;;;;;;5012086;28;21072;-71
2023/05/19 05:39:56;;;;;;;6.17;3.70;;;10.80;86.00;;;;;;5012357;28;20527;-72
2023/05/19 05:42:25;;;;;;;9.80;3.50;;;10.90;87.40;;;;;;5011571;28;20483;-71
2023/05/19 05:44:56;;;;;;;8.37;3.77;;;11.10;85.80;;;;;;5012340;28;20448;-71
2023/05/19 05:47:26;;;;;;;8.93;4.23;;;11.10;84.60;;;;;;5011816;28;21045;-72
2023/05/19 05:49:55;;;;;;;6.00;3.30;;;11.20;83.00;;;;;;5012557;28;20484;-72
2023/05/19 05:52:28;;;;;;;10.77;4.00;;;11.20;84.20;;;;;;5011850;28;20449;-72
2023/05/19 05:54:57;;;;;;;12.40;4.13;;;11.20;83.30;;;;;;5011699;28;20883;-72
2023/05/19 05:57:25;;;;;;;8.30;4.67;;;11.30;82.60;;;;;;5012230;28;20460;-71
2023/05/19 05:59:54;;;;;;;8.13;4.70;;;11.30;83.40;;;;;;5012111;28;20465;-71
2023/05/19 06:02:22;;;;;;;8.37;3.83;;;11.40;82.70;;;;;;5011827;28;20487;-72
2023/05/19 06:04:52;;;;;;;5.33;3.50;;;11.50;83.90;;;;;;5011538;28;20474;-71
2023/05/19 06:07:21;;;;;;;5.50;3.63;;;11.70;82.30;;;;;;5011768;28;20551;-72
2023/05/19 06:09:49;;;;;;;6.43;3.37;;;11.80;83.00;;;;;;5011594;28;20512;-71
2023/05/19 06:12:17;;;;;;;4.23;3.63;;;11.90;80.30;;;;;;5011940;28;20865;-70
2023/05/19 06:14:45;;;;;;;7.33;3.40;;;11.90;79.30;;;;;;5011634;28;20443;-71
2023/05/19 06:17:13;;;;;;;5.70;3.47;;;11.90;81.60;;;;;;5011850;28;20462;-71
2023/05/19 06:19:41;;;;;;;4.40;4.00;;;11.90;79.70;;;;;;5011691;28;20533;-70
2023/05/19 06:22:10;;;;;;;5.63;3.67;;;12.00;79.60;;;;;;5011636;28;20487;-71
2023/05/19 06:24:38;;;;;;;9.17;4.00;;;12.10;79.50;;;;;;5011595;28;20513;-72
2023/05/19 06:27:06;;;;;;;5.07;3.80;;;12.30;79.50;;;;;;5011408;28;20896;-69
2023/05/19 06:29:34;;;;;;;7.70;3.87;;;12.40;78.40;;;;;;5011232;28;20505;-71
2023/05/19 06:32:02;;;;;;;6.43;3.20;;;12.60;78.00;;;;;;5011023;28;20508;-73
2023/05/19 06:34:31;;;;;;;5.63;3.57;;;12.60;76.10;;;;;;5010870;28;20955;-71
2023/05/19 06:37:01;;;;;;;5.10;4.60;;;12.60;77.70;;;;;;5010866;28;20550;-70
2023/05/19 06:39:30;;;;;;;5.03;3.80;;;12.80;80.20;;;;;;5011536;28;20451;-73
2023/05/19 06:41:58;;;;;;;8.60;3.90;;;13.00;76.20;;;;;;5011159;28;20562;-73
2023/05/19 06:44:26;;;;;;;8.07;4.20;;;13.00;76.40;;;;;;5010730;28;20449;-72
2023/05/19 06:46:54;;;;;;;6.53;4.13;;;13.10;76.40;;;;;;5011700;28;20834;-73
2023/05/19 06:49:22;;;;;;;7.87;4.33;;;13.00;75.00;;;;;;5011354;28;20503;-72
2023/05/19 06:51:50;;;;;;;5.90;3.73;;;13.10;75.00;;;;;;5011663;28;20445;-72
2023/05/19 06:54:18;;;;;;;7.13;5.27;;;13.10;75.20;;;;;;5010922;28;20479;-73
2023/05/19 06:56:48;;;;;;;8.10;5.00;;;13.20;75.30;;;;;;5010903;28;20558;-73
2023/05/19 06:59:16;;;;;;;6.30;4.03;;;13.50;74.10;;;;;;5011160;28;20539;-73
2023/05/19 07:01:44;;;;;;;6.13;3.80;;;13.60;72.40;;;;;;5010690;28;20485;-73
2023/05/19 07:04:12;;;;;;;6.97;3.87;;;13.80;73.30;;;;;;5010856;28;20874;-72
2023/05/19 07:06:40;;;;;;;7.90;4.40;;;14.10;73.90;;;;;;5010144;28;20518;-71
2023/05/19 07:09:10;;;;;;;7.30;4.90;;;14.10;69.20;;;;;;5010596;28;20453;-71
2023/05/19 07:11:38;;;;;;;8.87;4.20;;;14.00;70.00;;;;;;5010397;28;20508;-71
2023/05/19 07:14:08;;;;;;;6.83;4.00;;;14.30;72.00;;;;;;5010187;28;20446;-71
2023/05/19 07:16:36;;;;;;;8.10;4.43;;;14.70;69.30;;;;;;5010501;28;20543;-71
2023/05/19 07:19:04;;;;;;;4.67;3.23;;;14.70;68.80;;;;;;5010658;28;20479;-73
2023/05/19 07:21:32;;;;;;;5.97;3.47;;;14.90;69.70;;;;;;5010368;28;20476;-72
2023/05/19 07:24:00;;;;;;;4.90;3.77;;;15.30;69.40;;;;;;5010403;28;20530;-71
2023/05/19 07:26:29;;;;;;;9.13;4.30;;;15.50;68.60;;;;;;5009332;28;20520;-71
2023/05/19 07:28:57;;;;;;;7.97;3.70;;;15.50;64.30;;;;;;5009992;28;20447;-70
2023/05/19 07:31:26;;;;;;;6.07;3.33;;;15.30;66.30;;;;;;5010585;28;20851;-72
2023/05/19 07:33:54;;;;;;;6.40;3.40;;;15.50;66.80;;;;;;5009928;28;20944;-76
2023/05/19 07:36:22;;;;;;;4.60;4.00;;;15.50;64.80;;;;;;5007501;28;20576;-70
2023/05/19 07:38:50;;;;;;;7.77;3.40;;;15.00;64.70;;;;;;5008475;28;20952;-71
2023/05/19 07:41:18;;;;;;;9.83;3.73;;;14.80;65.30;;;;;;5015740;28;20450;-71
2023/05/19 07:43:46;;;;;;;5.53;3.70;;;15.00;67.50;;;;;;5013328;28;20446;-71
2023/05/19 07:46:14;;;;;;;8.23;5.00;;;15.30;67.90;;;;;;5005537;28;20475;-71
2023/05/19 07:48:44;;;;;;;3.50;3.17;;;15.70;63.40;;;;;;5010494;28;20982;-70
2023/05/19 07:51:12;;;;;;;8.97;4.03;;;15.80;62.10;;;;;;5009089;28;20445;-69
2023/05/19 07:53:40;;;;;;;5.93;3.40;;;15.80;61.90;;;;;;5009335;28;20586;-69
2023/05/19 07:56:08;;;;;;;8.53;3.67;;;15.70;62.20;;;;;;5009194;28;20485;-70
2023/05/19 07:58:36;;;;;;;6.50;4.20;;;15.70;62.40;;;;;;5008956;28;20474;-69
2023/05/19 08:01:04;;;;;;;5.35;3.40;;;16.00;65.00;;;;;;5009177;28;21005;-69
2023/05/19 08:03:33;;;;;;;5.77;3.50;;;15.80;61.30;;;;;;5009802;28;20230;-69
2023/05/19 08:06:03;;;;;;;6.20;3.40;;;15.40;61.80;;;;;;5007562;28;20473;-69
2023/05/19 08:08:32;;;;;;;5.00;3.63;;;15.30;63.00;;;;;;5009883;28;20541;-69
2023/05/19 08:11:02;;;;;;;8.13;4.40;;;15.50;63.70;;;;;;5010088;28;21190;-69
2023/05/19 08:13:31;;;;;;;9.07;4.60;;;15.50;62.80;;;;;;5009338;28;20444;-70
2023/05/19 08:15:59;;;;;;;6.60;2.90;;;15.30;64.30;;;;;;5009665;28;20465;-70
2023/05/19 08:18:27;;;;;;;7.93;4.20;;;15.30;63.10;;;;;;5009645;28;20463;-68
2023/05/19 08:20:55;;;;;;;6.33;3.63;;;15.30;65.20;;;;;;5013903;28;20952;-69
2023/05/19 08:23:24;;;;;;;5.87;3.90;;;15.40;64.70;;;;;;5013295;28;20483;-69
2023/05/19 08:25:52;;;;;;;4.73;3.50;;;15.50;66.00;;;;;;5014206;28;20552;-70
2023/05/19 08:28:20;;;;;;;5.40;2.90;;;15.70;66.10;;;;;;5007858;28;20799;-72
2023/05/19 08:30:51;;;;;;;7.83;4.30;;;15.90;64.10;;;;;;5027028;28;20448;-71
2023/05/19 08:33:20;;;;;;;9.47;3.43;;;15.60;63.80;;;;;;5021793;28;20473;-71
2023/05/19 08:35:48;;;;;;;6.50;3.50;;;15.50;65.40;;;;;;5020097;28;20436;-70
2023/05/19 08:38:16;;;;;;;6.87;3.60;;;15.50;63.50;;;;;;5018006;28;20496;-69
2023/05/19 08:40:47;;;;;;;8.03;4.40;;;15.70;63.70;;;;;;5029028;28;20494;-69
2023/05/19 08:43:15;;;;;;;6.17;2.80;;;15.80;62.40;;;;;;5020787;28;20513;-69
2023/05/19 08:45:45;;;;;;;5.73;3.57;;;15.90;64.60;;;;;;5020454;28;20476;-68
2023/05/19 08:48:14;;;;;;;4.80;3.30;;;16.10;63.10;;;;;;5028818;28;20999;-70
2023/05/19 08:50:48;;;;;;;8.23;3.60;;;16.40;63.40;;;;;;5029065;28;20442;-68
2023/05/19 08:53:24;;;;;;;5.57;3.17;;;16.40;61.50;;;;;;5011719;28;20441;-68
2023/05/19 08:56:08;;;;;;;4.73;3.10;;;16.30;62.70;;;;;;5012845;28;20465;-68
2023/05/19 08:58:39;;;;;;;6.83;3.60;;;16.60;63.80;;;;;;5013211;28;20861;-69
2023/05/19 09:01:08;;;;;;;7.40;3.53;;;16.50;61.70;;;;;;5012850;28;20446;-69
2023/05/19 09:03:39;;;;;;;5.63;2.97;;;16.60;62.20;;;;;;5011561;28;20521;-68
2023/05/19 09:06:09;;;;;;;7.33;3.77;;;16.40;59.50;;;;;;5017273;28;20461;-69
2023/05/19 09:08:37;;;;;;;6.57;4.20;;;16.00;60.80;;;;;;5032873;28;20821;-68
2023/05/19 09:11:06;;;;;;;10.63;4.30;;;16.00;62.60;;;;;;5032753;28;20491;-68
2023/05/19 09:13:34;;;;;;;7.80;3.73;;;16.20;62.50;;;;;;5032587;28;20443;-69
2023/05/19 09:16:03;;;;;;;6.17;3.80;;;16.30;61.60;;;;;;5032018;28;20456;-69
2023/05/19 09:18:31;;;;;;;4.80;3.60;;;16.30;59.90;;;;;;5032917;28;20451;-68
2023/05/19 09:21:01;;;;;;;5.03;3.10;;;15.90;59.90;;;;;;5032310;28;20483;-69
2023/05/19 09:23:32;;;;;;;6.67;3.73;;;15.90;62.10;;;;;;5032364;28;20483;-70
2023/05/19 09:26:03;;;;;;;6.40;4.07;;;15.80;61.80;;;;;;5032492;28;20466;-69
2023/05/19 09:28:35;;;;;;;5.53;3.50;;;15.70;62.60;;;;;;5032797;28;20503;-69
2023/05/19 09:31:04;;;;;;;7.53;3.90;;;15.50;61.80;;;;;;5032326;28;20443;-69
2023/05/19 09:33:34;;;;;;;5.87;3.80;;;15.50;65.70;;;;;;5031065;28;20475;-75
2023/05/19 09:36:04;;;;;;;6.27;3.60;;;15.30;61.30;;;;;;5012742;28;20476;-69
2023/05/19 09:38:32;;;;;;;10.13;4.87;;;15.00;63.30;;;;;;5012652;28;20452;-68
2023/05/19 09:41:01;;;;;;;8.60;3.70;;;14.90;63.50;;;;;;5013029;28;20944;-68
2023/05/19 09:43:29;;;;;;;4.23;3.77;;;15.10;65.80;;;;;;5012303;28;20547;-69
2023/05/19 09:46:03;;;;;;;10.30;4.80;;;15.50;66.10;;;;;;5012137;28;20521;-69
2023/05/19 09:48:31;;;;;;;11.67;5.83;;;15.80;64.00;;;;;;5013848;28;20469;-69
2023/05/19 09:51:00;;;;;;;6.50;3.60;;;16.30;61.50;;;;;;5011801;28;20545;-68
2023/05/19 09:53:31;;;;;;;5.63;3.77;;;16.60;62.90;;;;;;5012502;28;20447;-69
2023/05/19 09:56:02;;;;;;;11.50;3.93;;;16.60;62.60;;;;;;5004799;28;20549;-70
2023/05/19 09:58:33;;;;;;;6.33;4.07;;;16.40;59.90;;;;;;5027728;28;20471;-69
2023/05/19 10:01:05;;;;;;;5.93;3.60;;;16.60;61.70;;;;;;4999110;28;20502;-68
2023/05/19 10:03:33;;;;;;;5.83;3.80;;;16.80;60.60;;;;;;5023615;28;20484;-69
2023/05/19 10:06:03;;;;;;;7.80;3.60;;;16.70;58.70;;;;;;5022457;28;20483;-70
2023/05/19 10:08:34;;;;;;;6.10;4.23;;;16.70;59.80;;;;;;5026333;28;20505;-74
2023/05/19 10:11:03;;;;;;;5.20;3.47;;;16.60;59.70;;;;;;5026827;28;20447;-70
2023/05/19 10:13:33;;;;;;;6.83;4.03;;;16.80;61.50;;;;;;5018840;28;20430;-71
2023/05/19 10:16:03;;;;;;;6.93;3.83;;;16.90;58.40;;;;;;5028716;28;20462;-70
2023/05/19 10:18:34;;;;;;;5.90;3.47;;;16.80;62.00;;;;;;5015296;28;20442;-71
2023/05/19 10:21:07;;;;;;;4.17;3.03;;;16.80;60.10;;;;;;4998991;28;20810;-71
2023/05/19 10:23:35;;;;;;;5.70;4.57;;;16.20;59.80;;;;;;5022349;28;20553;-71
2023/05/19 10:26:06;;;;;;;4.73;3.53;;;15.80;60.10;;;;;;5023465;28;20488;-70
2023/05/19 10:28:37;;;;;;;4.43;3.30;;;15.20;60.90;;;;;;5013321;28;20461;-70
2023/05/19 10:31:15;;;;;;;6.53;3.90;;;15.10;61.60;;;;;;5005675;28;20464;-70
2023/05/19 10:34:00;;;;;;;7.27;3.57;;;15.10;63.90;;;;;;5012878;28;20493;-69
2023/05/19 10:36:44;;;;;;;4.70;4.20;;;15.00;63.10;;;;;;5004047;28;20558;-70
2023/05/19 10:39:18;;;;;;;4.40;3.60;;;14.90;64.10;;;;;;5001735;28;20434;-71
2023/05/19 10:41:57;;;;;;;8.27;3.53;;;15.20;63.80;;;;;;5002665;28;20531;-71
2023/05/19 10:44:40;;;;;;;8.40;4.80;;;15.70;65.50;;;;;;5002371;28;20475;-70
2023/05/19 10:47:10;;;;;;;4.63;3.40;;;16.40;62.40;;;;;;5000794;28;20457;-71
2023/05/19 10:49:39;;;;;;;7.20;3.90;;;17.00;61.50;;;;;;5010086;28;20548;-70
2023/05/19 10:52:21;;;;;;;4.63;3.30;;;17.30;59.90;;;;;;5010992;28;20474;-70
2023/05/19 10:54:50;;;;;;;5.63;3.53;;;17.60;58.20;;;;;;5010729;28;20438;-70
2023/05/19 10:57:24;;;;;;;6.47;3.70;;;17.60;58.20;;;;;;5010676;28;20453;-71
2023/05/19 10:59:52;;;;;;;4.53;3.63;;;17.30;58.00;;;;;;5011128;28;20452;-70
2023/05/19 11:02:39;;;;;;;5.10;3.40;;;16.90;56.90;;;;;;5010874;28;20447;-70
2023/05/19 11:05:09;;;;;;;5.80;3.90;;;16.40;58.50;;;;;;5010721;28;20479;-70
2023/05/19 11:07:41;;;;;;;6.67;3.77;;;15.80;59.60;;;;;;5008149;28;20542;-69
2023/05/19 11:10:10;;;;;;;5.60;4.23;;;15.50;60.00;;;;;;5005168;28;20488;-68
2023/05/19 11:12:42;;;;;;;6.20;3.50;;;15.40;62.00;;;;;;5001315;28;20442;-70
2023/05/19 11:15:13;;;;;;;5.10;4.20;;;15.30;61.90;;;;;;5000025;28;20961;-71
2023/05/19 11:17:47;;;;;;;6.47;3.47;;;15.50;63.30;;;;;;4999693;28;20882;-71
2023/05/19 11:20:22;;;;;;;5.70;3.60;;;15.80;63.90;;;;;;5000232;28;20522;-71
2023/05/19 11:23:16;;;;;;;6.43;3.60;;;16.50;61.30;;;;;;5000522;28;20468;-70
2023/05/19 11:25:46;;;;;;;10.00;3.30;;;17.00;62.10;;;;;;4987818;28;20571;-71
2023/05/19 11:28:17;;;;;;;6.00;3.40;;;17.30;59.00;;;;;;4999399;28;20473;-70
2023/05/19 11:30:49;;;;;;;5.60;3.70;;;17.40;57.90;;;;;;5000196;28;20480;-70
2023/05/19 11:33:19;;;;;;;3.40;3.10;;;17.50;58.50;;;;;;4998652;28;20439;-71
2023/05/19 11:35:48;;;;;;;7.23;3.67;;;17.20;57.70;;;;;;4999898;28;20453;-71
2023/05/19 11:38:18;;;;;;;7.30;4.10;;;17.20;60.10;;;;;;5000674;28;20445;-71
2023/05/19 11:40:48;;;;;;;5.30;4.20;;;17.10;58.10;;;;;;4999578;28;20443;-70
2023/05/19 11:43:16;;;;;;;6.47;3.20;;;17.00;60.20;;;;;;4998717;28;20462;-71
2023/05/19 11:45:45;;;;;;;5.70;3.97;;;17.20;61.50;;;;;;5000391;28;20478;-71
2023/05/19 11:48:14;;;;;;;7.40;3.90;;;17.40;62.60;;;;;;5001035;28;20450;-70
2023/05/19 11:50:45;;;;;;;5.33;3.47;;;17.40;59.20;;;;;;4999642;28;20505;-70
2023/05/19 11:53:14;;;;;;;5.97;3.80;;;17.50;59.10;;;;;;5001157;28;20446;-70
2023/05/19 11:55:46;;;;;;;5.00;3.70;;;17.50;58.70;;;;;;4993402;28;20450;-70
2023/05/19 11:58:15;;;;;;;7.00;3.67;;;17.50;58.40;;;;;;4998741;28;20444;-71
2023/05/19 12:00:46;;;;;;;7.60;3.53;;;17.80;58.80;;;;;;4999477;28;20434;-71
2023/05/19 12:03:15;;;;;;;7.33;4.40;;;18.10;58.00;;;;;;5002110;28;20573;-76
2023/05/19 12:05:47;;;;;;;6.60;3.90;;;18.20;56.80;;;;;;5010400;28;20901;-73
2023/05/19 12:08:17;;;;;;;4.90;3.47;;;18.10;56.40;;;;;;5010233;28;21006;-75
2023/05/19 12:10:49;;;;;;;5.50;3.63;;;18.20;58.50;;;;;;5002486;28;20442;-73
2023/05/19 12:13:17;;;;;;;5.53;4.23;;;18.50;57.90;;;;;;5005905;28;20565;-72
2023/05/19 12:15:45;;;;;;;5.00;3.40;;;18.30;56.80;;;;;;5010917;28;20444;-72
2023/05/19 12:18:13;;;;;;;7.77;4.03;;;18.40;56.90;;;;;;5009590;28;20472;-72
2023/05/19 12:20:41;;;;;;;7.73;3.90;;;18.50;55.30;;;;;;5018525;28;20877;-73
2023/05/19 12:23:11;;;;;;;5.77;3.30;;;18.50;56.10;;;;;;5021934;28;20528;-73
2023/05/19 12:25:39;;;;;;;7.50;3.63;;;18.30;55.50;;;;;;5007366;28;20477;-72
2023/05/19 12:28:07;;;;;;;7.20;3.80;;;17.60;56.90;;;;;;5000728;28;20445;-71
2023/05/19 12:30:35;;;;;;;6.80;3.40;;;17.50;59.00;;;;;;5017289;28;20448;-71
2023/05/19 12:33:04;;;;;;;8.00;4.43;;;17.50;60.80;;;;;;5016187;28;20470;-71
2023/05/19 12:35:33;;;;;;;7.87;4.40;;;17.40;57.90;;;;;;5024052;28;20483;-70
2023/05/19 12:38:06;;;;;;;7.77;4.70;;;17.10;58.70;;;;;;5007420;28;20918;-72
2023/05/19 12:40:36;;;;;;;11.37;3.73;;;16.70;58.50;;;;;;5018208;28;20848;-71
2023/05/19 12:43:08;;;;;;;5.50;3.87;;;16.30;59.20;;;;;;5014253;28;20440;-72
2023/05/19 12:45:37;;;;;;;5.90;4.10;;;16.00;60.10;;;;;;5018054;28;20539;-72
2023/05/19 12:48:11;;;;;;;6.97;3.53;;;15.80;60.60;;;;;;5021593;28;20444;-72
2023/05/19 12:50:39;;;;;;;5.33;3.30;;;15.60;60.60;;;;;;5005418;28;20440;-71
2023/05/19 12:53:08;;;;;;;10.50;4.23;;;15.50;61.70;;;;;;4999773;28;20462;-72
2023/05/19 12:55:42;;;;;;;8.97;4.20;;;15.40;61.70;;;;;;5009101;28;20466;-71
2023/05/19 12:58:11;;;;;;;5.07;3.93;;;15.30;64.40;;;;;;5009445;28;20456;-71
2023/05/19 13:00:45;;;;;;;4.70;3.20;;;15.40;64.20;;;;;;5007702;28;21766;-71